Time;durP1;ratioP1;P1;durP2;ratioP2;P2;SDS_P1;SDS_P2;PMS_P1;PMS_P2;Temp;Humidity;BMP_temperature;BMP_pressure;BME280_temperature;BME280_humidity;BME280_pressure;Samples;Min_cycle;Max_cycle;Signal;HPM_P1;HPM_P2
2023/08/13 00:01:51;;;;;;;8.48;7.90;;;;;;;18.03;89.33;93480.19;5065377;28;20178;-78
2023/08/13 00:04:18;;;;;;;8.77;7.70;;;;;;;18.05;88.12;93481.75;5067382;28;20052;-78
2023/08/13 00:06:45;;;;;;;8.43;7.82;;;;;;;18.06;90.55;93470.31;5068088;28;20094;-77
2023/08/13 00:09:11;;;;;;;7.15;6.55;;;;;;;18.05;89.84;93472.13;5062247;28;20560;-78
2023/08/13 00:11:38;;;;;;;9.38;8.65;;;;;;;18.00;89.75;93472.88;5064730;28;20045;-78
2023/08/13 00:14:06;;;;;;;7.82;7.32;;;;;;;17.85;90.01;93476.16;5061713;28;20548;-78
2023/08/13 00:16:33;;;;;;;8.65;8.05;;;;;;;17.93;90.23;93485.31;5065946;28;20711;-77
2023/08/13 00:19:00;;;;;;;7.78;7.25;;;;;;;17.86;89.69;93477.72;5066460;28;20044;-77
2023/08/13 00:21:26;;;;;;;8.00;7.30;;;;;;;17.84;89.06;93481.59;5064441;28;20514;-77
2023/08/13 00:23:53;;;;;;;7.78;7.15;;;;;;;17.92;88.96;93477.75;5065647;28;20053;-78
2023/08/13 00:26:20;;;;;;;8.00;7.50;;;;;;;17.89;88.96;93460.84;5067493;28;20532;-77
2023/08/13 00:28:46;;;;;;;8.25;7.75;;;;;;;17.82;90.21;93478.47;5062524;28;20045;-78
2023/08/13 00:31:15;;;;;;;7.45;6.95;;;;;;;17.90;90.01;93478.00;5067114;28;20465;-78
2023/08/13 00:33:42;;;;;;;7.85;7.20;;;;;;;17.84;92.22;93479.78;5067296;28;20044;-77
2023/08/13 00:36:09;;;;;;;8.68;7.88;;;;;;;17.85;90.81;93477.97;5064717;28;20556;-77
2023/08/13 00:38:36;;;;;;;8.07;7.53;;;;;;;17.92;89.99;93483.75;5066261;28;20049;-78
2023/08/13 00:41:03;;;;;;;6.63;6.10;;;;;;;17.94;90.02;93483.50;5064168;28;20098;-77
2023/08/13 00:43:29;;;;;;;9.05;8.45;;;;;;;17.97;89.90;93480.41;5060006;28;20635;-77
2023/08/13 00:45:56;;;;;;;9.48;8.88;;;;;;;17.89;91.16;93474.63;5067568;28;20044;-78
2023/08/13 00:48:24;;;;;;;8.80;8.10;;;;;;;17.80;90.90;93465.72;5063766;28;20057;-77
2023/08/13 00:50:51;;;;;;;9.40;8.80;;;;;;;17.90;90.39;93478.00;5065482;28;20098;-77
2023/08/13 00:53:18;;;;;;;9.23;8.55;;;;;;;17.86;90.67;93472.53;5065179;28;20048;-78
2023/08/13 00:55:45;;;;;;;8.35;7.75;;;;;;;17.72;92.72;93476.56;5064277;28;20044;-77
2023/08/13 00:58:12;;;;;;;9.10;8.40;;;;;;;17.64;93.68;93464.84;5064119;28;20090;-77
2023/08/13 01:00:39;;;;;;;9.80;9.20;;;;;;;17.55;93.06;93466.31;5067270;28;20044;-78
2023/08/13 01:03:07;;;;;;;9.45;8.90;;;;;;;17.52;93.61;93464.97;5061899;28;20114;-77
2023/08/13 01:05:43;;;;;;;8.65;7.95;;;;;;;17.65;93.08;93478.59;5066213;28;20163;-77
2023/08/13 01:08:17;;;;;;;8.93;8.30;;;;;;;17.49;93.70;93436.88;5061907;28;20055;-78
2023/08/13 01:10:47;;;;;;;10.55;9.85;;;;;;;17.64;92.83;93457.03;5065364;28;20049;-78
2023/08/13 01:13:20;;;;;;;9.52;8.82;;;;;;;17.76;93.66;93456.84;5060316;28;20103;-78
2023/08/13 01:15:48;;;;;;;9.38;8.77;;;;;;;17.69;92.55;93446.66;5063049;28;20094;-78
2023/08/13 01:18:17;;;;;;;8.40;7.85;;;;;;;17.85;91.65;93460.56;5066281;28;20494;-78
2023/08/13 01:20:45;;;;;;;7.82;7.32;;;;;;;17.86;91.92;93459.53;5064487;28;20045;-78
2023/08/13 01:23:13;;;;;;;7.43;6.82;;;;;;;17.93;91.77;93463.72;5064836;28;20044;-78
2023/08/13 01:25:44;;;;;;;6.88;6.32;;;;;;;17.84;92.05;93453.81;5065852;28;20392;-78
2023/08/13 01:28:20;;;;;;;7.50;6.75;;;;;;;17.91;92.61;93474.38;5056630;28;20445;-79
2023/08/13 01:30:51;;;;;;;8.00;7.50;;;;;;;17.84;91.74;93466.00;5066022;28;20113;-79
2023/08/13 01:33:26;;;;;;;7.18;6.72;;;;;;;17.81;91.66;93456.91;5066294;28;20053;-77
2023/08/13 01:35:56;;;;;;;8.98;8.35;;;;;;;17.71;92.09;93452.41;5064128;28;20903;-78
2023/08/13 01:38:25;;;;;;;8.25;7.70;;;;;;;17.70;92.25;93455.25;5063423;28;20160;-78
2023/08/13 01:40:52;;;;;;;9.27;8.68;;;;;;;17.76;91.27;93467.25;5065664;28;20048;-78
2023/08/13 01:43:19;;;;;;;7.00;6.40;;;;;;;17.69;91.12;93459.66;5061229;28;20044;-78
2023/08/13 01:45:46;;;;;;;8.52;7.95;;;;;;;17.71;91.78;93462.81;5066358;28;20049;-78
2023/08/13 01:48:13;;;;;;;8.40;7.90;;;;;;;17.69;92.68;93462.25;5062672;28;20453;-79
2023/08/13 01:50:40;;;;;;;8.07;7.57;;;;;;;17.61;91.91;93463.50;5064364;28;20048;-79
2023/08/13 01:53:07;;;;;;;8.77;8.27;;;;;;;17.52;92.07;93461.59;5063957;28;20167;-78
2023/08/13 01:55:35;;;;;;;8.30;7.70;;;;;;;17.54;92.63;93464.75;5062767;28;20040;-78
2023/08/13 01:58:02;;;;;;;8.13;7.63;;;;;;;17.45;92.74;93470.38;5065029;28;20120;-79
2023/08/13 02:00:29;;;;;;;7.60;7.00;;;;;;;17.40;93.36;93469.56;5066032;28;20089;-79
2023/08/13 02:02:56;;;;;;;8.05;7.55;;;;;;;17.40;94.39;93467.72;5063624;28;20213;-79
2023/08/13 02:05:22;;;;;;;8.52;7.93;;;;;;;17.27;95.18;93452.53;5066026;28;20106;-79
2023/08/13 02:07:49;;;;;;;9.02;8.40;;;;;;;17.36;93.59;93466.66;5065001;28;20056;-78
2023/08/13 02:10:16;;;;;;;9.48;8.88;;;;;;;17.38;94.67;93467.19;5063623;28;20049;-79
2023/08/13 02:12:44;;;;;;;9.00;8.30;;;;;;;17.33;94.42;93467.94;5061933;28;20044;-78
2023/08/13 02:15:11;;;;;;;9.35;8.70;;;;;;;17.16;96.18;93455.03;5062446;28;20106;-78
2023/08/13 02:17:38;;;;;;;7.78;7.28;;;;;;;17.17;97.09;93469.56;5064693;28;20037;-79
2023/08/13 02:20:05;;;;;;;8.13;7.63;;;;;;;17.04;97.53;93467.38;5065099;28;20113;-78
2023/08/13 02:22:32;;;;;;;8.60;8.00;;;;;;;17.00;97.68;93461.06;5063106;28;20529;-79
2023/08/13 02:24:59;;;;;;;8.15;7.63;;;;;;;16.95;99.85;93462.56;5063449;28;20074;-79
2023/08/13 02:27:25;;;;;;;8.82;8.32;;;;;;;16.91;98.59;93460.72;5063840;28;20049;-78
2023/08/13 02:29:54;;;;;;;9.18;8.48;;;;;;;16.89;99.85;93470.56;5064205;28;20036;-78
2023/08/13 02:32:20;;;;;;;10.77;10.07;;;;;;;16.83;99.66;93467.09;5064046;28;20056;-78
2023/08/13 02:34:48;;;;;;;11.38;10.55;;;;;;;16.85;100.00;93475.44;5064228;28;21327;-78
2023/08/13 02:37:15;;;;;;;9.60;9.02;;;;;;;16.72;100.00;93473.22;5064141;28;20044;-79
2023/08/13 02:39:41;;;;;;;8.98;8.25;;;;;;;16.63;100.00;93484.00;5068341;28;20049;-78
2023/08/13 02:42:08;;;;;;;9.15;8.55;;;;;;;16.59;100.00;93479.53;5065014;28;20395;-78
2023/08/13 02:44:35;;;;;;;12.25;11.57;;;;;;;16.51;100.00;93484.13;5068311;28;20048;-78
2023/08/13 02:47:03;;;;;;;11.10;10.40;;;;;;;16.46;100.00;93484.03;5069405;28;20056;-78
2023/08/13 02:49:30;;;;;;;16.63;15.75;;;;;;;16.40;100.00;93483.19;5065615;28;20090;-78
2023/08/13 02:51:56;;;;;;;13.02;12.25;;;;;;;16.32;100.00;93485.41;5068318;28;20087;-78
2023/08/13 02:54:23;;;;;;;19.95;18.75;;;;;;;16.33;100.00;93494.75;5064293;28;20052;-78
2023/08/13 02:56:50;;;;;;;25.27;24.00;;;;;;;15.98;100.00;93455.13;5068155;28;20490;-79
2023/08/13 02:59:17;;;;;;;22.73;21.63;;;;;;;16.19;100.00;93489.91;5068921;28;20117;-78
2023/08/13 03:01:45;;;;;;;35.50;33.28;;;;;;;16.16;100.00;93498.94;5066392;28;20044;-78
2023/08/13 03:04:13;;;;;;;21.70;20.05;;;;;;;16.03;100.00;93497.44;5062742;28;20086;-79
2023/08/13 03:06:40;;;;;;;41.13;38.83;;;;;;;16.00;100.00;93490.16;5069272;28;20052;-78
2023/08/13 03:09:07;;;;;;;43.55;41.20;;;;;;;15.81;100.00;93481.78;5069037;28;20056;-79
2023/08/13 03:11:34;;;;;;;51.70;49.13;;;;;;;15.81;100.00;93499.94;5067566;28;20052;-79
2023/08/13 03:14:00;;;;;;;49.50;47.03;;;;;;;15.76;100.00;93505.03;5063830;28;20063;-79
2023/08/13 03:16:27;;;;;;;56.67;54.10;;;;;;;15.73;100.00;93501.09;5069298;28;20053;-77
2023/08/13 03:18:54;;;;;;;33.85;32.20;;;;;;;15.66;100.00;93502.25;5065932;28;20098;-78
2023/08/13 03:21:22;;;;;;;61.90;59.10;;;;;;;15.59;100.00;93503.19;5065040;28;20056;-78
2023/08/13 03:23:49;;;;;;;39.22;37.38;;;;;;;15.54;100.00;93495.34;5064519;28;20051;-77
2023/08/13 03:26:15;;;;;;;46.25;44.10;;;;;;;15.41;100.00;93488.66;5063445;28;20645;-78
2023/08/13 03:28:42;;;;;;;41.13;39.05;;;;;;;15.44;100.00;93501.13;5068157;28;20092;-78
2023/08/13 03:31:09;;;;;;;51.92;49.40;;;;;;;15.40;100.00;93496.63;5068632;28;20426;-78
2023/08/13 03:33:35;;;;;;;61.33;58.53;;;;;;;15.28;100.00;93494.13;5062556;28;20049;-78
2023/08/13 03:36:02;;;;;;;51.65;49.22;;;;;;;15.26;100.00;93501.31;5067608;28;20036;-79
2023/08/13 03:38:30;;;;;;;68.40;65.13;;;;;;;15.28;100.00;93501.88;5065992;28;20048;-79
2023/08/13 03:40:58;;;;;;;50.60;48.00;;;;;;;15.14;100.00;93484.03;5068089;28;20513;-79
2023/08/13 03:43:24;;;;;;;64.13;61.22;;;;;;;15.09;100.00;93499.50;5060933;28;20457;-80
2023/08/13 03:45:51;;;;;;;61.40;58.65;;;;;;;15.02;100.00;93478.91;5065379;28;20059;-80
2023/08/13 03:48:18;;;;;;;85.30;81.60;;;;;;;15.12;100.00;93501.59;5066269;28;20128;-81
2023/08/13 03:50:45;;;;;;;66.45;63.38;;;;;;;15.01;100.00;93484.31;5067636;28;20044;-81
2023/08/13 03:53:12;;;;;;;59.17;56.55;;;;;;;15.07;100.00;93498.91;5067713;28;20560;-81
2023/08/13 03:55:40;;;;;;;67.65;64.65;;;;;;;15.02;100.00;93494.44;5067347;28;20485;-82
2023/08/13 03:58:08;;;;;;;68.57;65.35;;;;;;;15.06;100.00;93505.09;5066720;28;20110;-81
2023/08/13 04:00:34;;;;;;;60.53;57.70;;;;;;;14.76;100.00;93462.91;5066319;28;20052;-80
2023/08/13 04:03:03;;;;;;;67.95;64.75;;;;;;;14.83;100.00;93480.88;5064358;28;20098;-81
2023/08/13 04:05:29;;;;;;;73.55;70.30;;;;;;;14.92;100.00;93505.38;5067414;28;20056;-80
2023/08/13 04:07:56;;;;;;;66.07;62.92;;;;;;;14.94;100.00;93502.53;5067255;28;20109;-80
2023/08/13 04:10:23;;;;;;;57.78;55.13;;;;;;;14.95;100.00;93509.31;5064956;28;20044;-80
2023/08/13 04:12:51;;;;;;;80.40;76.85;;;;;;;14.81;100.00;93490.66;5064408;28;20059;-81
2023/08/13 04:15:18;;;;;;;65.75;62.70;;;;;;;14.93;100.00;93506.16;5062873;28;20121;-81
2023/08/13 04:17:44;;;;;;;76.97;73.38;;;;;;;14.80;100.00;93494.25;5064092;28;20109;-80
2023/08/13 04:20:12;;;;;;;64.57;61.45;;;;;;;14.83;100.00;93496.41;5063295;28;20053;-80
2023/08/13 04:22:39;;;;;;;73.70;70.25;;;;;;;14.91;100.00;93519.31;5063570;28;20064;-79
2023/08/13 04:25:07;;;;;;;88.20;84.28;;;;;;;14.90;100.00;93509.97;5063200;28;20145;-81
2023/08/13 04:27:33;;;;;;;66.38;63.35;;;;;;;14.96;100.00;93516.06;5062402;28;20052;-81
2023/08/13 04:30:02;;;;;;;76.38;72.80;;;;;;;15.02;100.00;93516.91;5062314;28;20048;-78
2023/08/13 04:32:28;;;;;;;64.68;61.78;;;;;;;15.07;100.00;93525.59;5062019;28;20052;-78
2023/08/13 04:34:55;;;;;;;65.53;62.58;;;;;;;15.12;100.00;93526.69;5060332;28;20552;-78
2023/08/13 04:37:22;;;;;;;55.72;53.20;;;;;;;15.09;100.00;93517.59;5061258;28;20049;-79
2023/08/13 04:39:49;;;;;;;74.13;70.47;;;;;;;15.22;100.00;93535.44;5062179;28;20048;-79
2023/08/13 04:42:15;;;;;;;75.57;72.13;;;;;;;15.20;100.00;93529.72;5062197;28;20453;-78
2023/08/13 04:44:42;;;;;;;60.80;58.00;;;;;;;15.28;100.00;93541.47;5064718;28;20082;-79
2023/08/13 04:47:10;;;;;;;72.47;69.13;;;;;;;15.32;100.00;93541.81;5066057;28;20048;-79
2023/08/13 04:49:37;;;;;;;48.58;46.25;;;;;;;15.40;100.00;93541.44;5067264;28;20106;-79
2023/08/13 04:52:04;;;;;;;59.70;57.00;;;;;;;15.46;100.00;93543.09;5066990;28;20048;-78
2023/08/13 04:54:31;;;;;;;50.05;47.45;;;;;;;15.51;100.00;93539.84;5067227;28;20064;-78
2023/08/13 04:56:57;;;;;;;45.70;43.13;;;;;;;15.53;100.00;93537.78;5067253;28;20044;-79
2023/08/13 04:59:24;;;;;;;50.25;47.80;;;;;;;15.61;100.00;93549.59;5063795;28;20048;-80
2023/08/13 05:01:51;;;;;;;57.08;54.47;;;;;;;15.67;100.00;93534.91;5066636;28;20117;-79
2023/08/13 05:04:19;;;;;;;47.85;45.55;;;;;;;15.75;100.00;93544.91;5066860;28;20044;-79
2023/08/13 05:06:46;;;;;;;41.55;39.58;;;;;;;15.76;100.00;93534.31;5067048;28;20061;-80
2023/08/13 05:09:12;;;;;;;63.72;60.53;;;;;;;15.81;100.00;93538.78;5064672;28;20640;-80
2023/08/13 05:11:39;;;;;;;46.78;44.63;;;;;;;15.88;100.00;93520.50;5062591;28;20049;-80
2023/08/13 05:14:06;;;;;;;50.03;47.63;;;;;;;16.03;100.00;93546.66;5065293;28;20044;-79
2023/08/13 05:16:32;;;;;;;52.42;49.90;;;;;;;16.00;100.00;93539.38;5066079;28;20102;-80
2023/08/13 05:18:59;;;;;;;47.95;45.65;;;;;;;16.12;100.00;93546.28;5062948;28;20044;-80
2023/08/13 05:21:27;;;;;;;53.25;50.75;;;;;;;16.22;100.00;93541.25;5062934;28;20074;-80
2023/08/13 05:23:54;;;;;;;49.20;46.90;;;;;;;16.33;100.00;93534.41;5065976;28;20082;-78
2023/08/13 05:26:21;;;;;;;49.10;46.78;;;;;;;16.36;100.00;93540.94;5066236;28;20117;-80
2023/08/13 05:28:48;;;;;;;45.25;43.13;;;;;;;16.28;100.00;93536.94;5066359;28;20489;-79
2023/08/13 05:31:15;;;;;;;42.45;40.45;;;;;;;16.27;100.00;93528.38;5062646;28;20566;-80
2023/08/13 05:33:41;;;;;;;40.17;38.17;;;;;;;16.35;100.00;93526.41;5059822;28;20040;-78
2023/08/13 05:36:08;;;;;;;44.72;42.60;;;;;;;16.45;100.00;93541.31;5066901;28;20048;-78
2023/08/13 05:38:39;;;;;;;33.50;31.80;;;;;;;16.46;100.00;93546.28;5064812;28;20048;-79
2023/08/13 05:41:06;;;;;;;43.67;41.53;;;;;;;16.46;100.00;93543.69;5066914;28;20044;-78
2023/08/13 05:43:35;;;;;;;47.58;44.80;;;;;;;16.62;100.00;93542.06;5065001;28;20044;-78
2023/08/13 05:46:02;;;;;;;38.75;36.75;;;;;;;16.79;100.00;93539.44;5064802;28;20052;-79
2023/08/13 05:48:28;;;;;;;41.38;39.33;;;;;;;16.91;100.00;93541.16;5065278;28;20139;-79
2023/08/13 05:50:55;;;;;;;38.30;36.33;;;;;;;17.07;100.00;93545.53;5063880;28;20083;-80
2023/08/13 05:53:22;;;;;;;28.45;26.95;;;;;;;17.23;100.00;93543.13;5065338;28;20611;-79
2023/08/13 05:55:51;;;;;;;27.73;26.23;;;;;;;17.36;100.00;93547.16;5066136;28;20060;-80
2023/08/13 05:58:18;;;;;;;28.33;26.83;;;;;;;17.49;100.00;93549.34;5063011;28;20044;-80
2023/08/13 06:00:45;;;;;;;17.95;16.98;;;;;;;17.58;100.00;93549.69;5065644;28;20041;-79
2023/08/13 06:03:11;;;;;;;26.23;24.92;;;;;;;17.68;100.00;93558.63;5064828;28;20214;-81
2023/08/13 06:05:38;;;;;;;17.25;16.25;;;;;;;17.60;100.00;93547.63;5066784;28;20052;-79
2023/08/13 06:08:06;;;;;;;22.90;21.67;;;;;;;17.75;100.00;93551.41;5067360;28;20106;-79
2023/08/13 06:10:33;;;;;;;26.17;24.67;;;;;;;17.88;100.00;93552.84;5059417;28;20094;-79
2023/08/13 06:13:01;;;;;;;19.38;17.98;;;;;;;18.10;99.90;93546.81;5065283;28;20048;-82
2023/08/13 06:15:29;;;;;;;17.00;15.98;;;;;;;18.33;99.57;93548.28;5063619;28;20076;-79
2023/08/13 06:17:56;;;;;;;15.68;14.73;;;;;;;18.51;97.69;93541.88;5062726;28;20044;-79
2023/08/13 06:20:23;;;;;;;12.57;11.57;;;;;;;18.85;97.09;93553.00;5065552;28;20668;-78
2023/08/13 06:22:50;;;;;;;8.95;8.27;;;;;;;19.05;94.56;93541.94;5062346;28;20053;-78
2023/08/13 06:25:17;;;;;;;8.77;8.07;;;;;;;19.33;93.72;93542.56;5060693;28;20044;-78
2023/08/13 06:27:43;;;;;;;9.50;8.70;;;;;;;19.56;92.38;93537.91;5066317;28;20090;-79
2023/08/13 06:30:12;;;;;;;12.43;11.32;;;;;;;19.70;90.81;93531.19;5064255;28;20076;-79
2023/08/13 06:32:39;;;;;;;7.68;6.82;;;;;;;19.94;89.02;93550.75;5066393;28;20109;-80
2023/08/13 06:35:06;;;;;;;7.32;6.72;;;;;;;19.98;86.64;93536.19;5065247;28;20564;-80
2023/08/13 06:37:33;;;;;;;6.53;6.03;;;;;;;20.36;87.02;93551.56;5065329;28;20091;-80
2023/08/13 06:40:00;;;;;;;6.95;6.35;;;;;;;20.65;87.07;93554.38;5063413;28;20102;-78
2023/08/13 06:42:26;;;;;;;4.82;4.38;;;;;;;20.79;84.94;93546.78;5065112;28;20468;-79
2023/08/13 06:44:53;;;;;;;5.60;4.97;;;;;;;21.05;83.53;93553.78;5065843;28;20241;-79
2023/08/13 06:47:21;;;;;;;4.78;4.38;;;;;;;21.26;82.22;93545.88;5063507;28;20564;-78
2023/08/13 06:49:48;;;;;;;3.85;3.47;;;;;;;21.46;81.03;93537.94;5065769;28;20543;-79
2023/08/13 06:52:15;;;;;;;5.70;3.95;;;;;;;21.62;80.73;93530.78;5055973;28;20045;-80
2023/08/13 06:54:41;;;;;;;4.43;4.03;;;;;;;21.59;78.15;93531.34;5064089;28;20407;-78
2023/08/13 06:57:09;;;;;;;5.80;3.67;;;;;;;21.97;79.39;93545.75;5061713;28;20044;-80
2023/08/13 06:59:35;;;;;;;5.25;3.97;;;;;;;22.08;76.67;93541.25;5061272;28;20082;-79
2023/08/13 07:02:04;;;;;;;4.57;3.78;;;;;;;22.01;75.46;93547.56;5061253;28;20041;-79
2023/08/13 07:04:32;;;;;;;5.40;4.00;;;;;;;22.11;75.86;93545.91;5064280;28;20072;-79
2023/08/13 07:06:59;;;;;;;6.22;4.32;;;;;;;22.37;77.42;93533.41;5064140;28;20094;-79
2023/08/13 07:09:27;;;;;;;5.25;4.35;;;;;;;22.73;75.18;93547.25;5065807;28;20465;-79
2023/08/13 07:11:54;;;;;;;6.82;5.00;;;;;;;23.03;75.43;93542.72;5063959;28;20049;-78
2023/08/13 07:14:21;;;;;;;4.30;3.90;;;;;;;23.33;73.71;93543.47;5062301;28;20040;-79
2023/08/13 07:16:47;;;;;;;8.48;4.28;;;;;;;23.52;72.24;93521.72;5065831;28;20065;-80
2023/08/13 07:19:14;;;;;;;5.30;3.72;;;;;;;23.82;72.16;93533.63;5063681;28;20052;-77
2023/08/13 07:21:42;;;;;;;4.70;3.47;;;;;;;23.97;70.89;93519.50;5061327;28;20056;-80
2023/08/13 07:24:09;;;;;;;4.97;3.10;;;;;;;24.19;68.84;93528.63;5062124;28;20053;-79
2023/08/13 07:26:36;;;;;;;7.40;3.28;;;;;;;24.44;69.17;93529.25;5067714;28;20418;-79
2023/08/13 07:29:06;;;;;;;9.43;3.88;;;;;;;24.59;69.32;93517.72;5063978;28;20113;-80
2023/08/13 07:31:34;;;;;;;7.60;3.67;;;;;;;24.72;67.62;93503.06;5068232;28;20102;-79
2023/08/13 07:34:01;;;;;;;6.10;2.92;;;;;;;25.08;63.73;93528.66;5069172;28;20391;-76
2023/08/13 07:36:27;;;;;;;4.57;3.33;;;;;;;25.20;64.86;93532.63;5068226;28;20093;-78
2023/08/13 07:38:55;;;;;;;7.28;4.43;;;;;;;25.43;65.49;93527.44;5068733;28;20146;-78
2023/08/13 07:41:22;;;;;;;8.05;3.35;;;;;;;25.56;63.54;93528.50;5068265;28;20095;-78
2023/08/13 07:43:49;;;;;;;8.20;3.30;;;;;;;25.54;64.94;93497.25;5068608;28;20060;-79
2023/08/13 07:46:16;;;;;;;7.03;3.60;;;;;;;25.89;63.76;93520.41;5068536;28;20106;-78
2023/08/13 07:48:42;;;;;;;4.40;2.67;;;;;;;26.18;63.03;93521.06;5065700;28;20044;-79
2023/08/13 07:51:10;;;;;;;7.47;3.08;;;;;;;26.36;62.14;93516.69;5065976;28;20119;-79
2023/08/13 07:53:36;;;;;;;3.55;2.90;;;;;;;26.54;59.81;93522.84;5061983;28;20102;-79
2023/08/13 07:56:05;;;;;;;5.25;2.80;;;;;;;26.50;57.16;93516.63;5061599;28;20396;-78
2023/08/13 07:58:33;;;;;;;4.15;2.70;;;;;;;26.65;58.72;93520.72;5065398;28;20040;-78
2023/08/13 08:00:59;;;;;;;3.65;2.70;;;;;;;26.69;57.60;93516.41;5066924;28;20045;-78
2023/08/13 08:03:26;;;;;;;3.45;2.78;;;;;;;26.67;55.55;93524.59;5067791;28;20056;-79
2023/08/13 08:05:53;;;;;;;4.50;2.80;;;;;;;26.74;55.85;93516.25;5063623;28;20052;-79
2023/08/13 08:08:20;;;;;;;3.55;2.55;;;;;;;25.99;55.59;93506.25;5066529;28;20040;-81
2023/08/13 08:10:47;;;;;;;7.00;3.22;;;;;;;25.10;56.19;93515.22;5064488;28;20049;-80
2023/08/13 08:13:15;;;;;;;3.75;2.80;;;;;;;24.50;57.83;93507.13;5065503;28;20985;-80
2023/08/13 08:15:41;;;;;;;3.65;2.80;;;;;;;24.42;59.08;93500.69;5066919;28;20090;-80
2023/08/13 08:18:08;;;;;;;4.90;3.22;;;;;;;23.87;60.77;93499.44;5067755;28;20110;-79
2023/08/13 08:20:35;;;;;;;4.07;2.88;;;;;;;23.86;59.14;93491.84;5064604;28;20055;-80
2023/08/13 08:23:02;;;;;;;3.30;2.90;;;;;;;23.63;61.12;93496.91;5064004;28;20057;-80
2023/08/13 08:25:29;;;;;;;3.75;2.80;;;;;;;23.78;60.14;93490.66;5063535;28;20044;-79
2023/08/13 08:27:56;;;;;;;3.85;2.75;;;;;;;23.48;58.07;93448.88;5066880;28;20098;-79
2023/08/13 08:30:24;;;;;;;3.65;2.58;;;;;;;24.24;58.96;93481.31;5068117;28;20044;-79
2023/08/13 08:32:51;;;;;;;5.13;2.80;;;;;;;24.29;56.89;93483.84;5064118;28;20052;-78
2023/08/13 08:35:18;;;;;;;4.13;2.80;;;;;;;24.09;55.96;93484.19;5064935;28;20072;-80
2023/08/13 08:37:45;;;;;;;3.22;2.72;;;;;;;24.38;55.43;93481.31;5061868;28;20506;-78
2023/08/13 08:40:12;;;;;;;3.40;2.45;;;;;;;24.34;54.17;93482.97;5062674;28;20052;-81
2023/08/13 08:42:41;;;;;;;3.13;2.13;;;;;;;24.01;55.49;93477.72;5064618;28;20418;-78
2023/08/13 08:45:10;;;;;;;4.85;2.85;;;;;;;24.22;55.39;93474.78;5063461;28;20089;-79
2023/08/13 08:47:40;;;;;;;3.72;2.25;;;;;;;24.69;54.37;93480.78;5061828;28;20102;-79
2023/08/13 08:50:10;;;;;;;3.50;2.70;;;;;;;24.14;54.33;93470.97;5063183;28;20176;-77
2023/08/13 08:52:39;;;;;;;4.30;2.97;;;;;;;24.22;54.73;93459.03;5059889;28;20068;-78
2023/08/13 08:55:07;;;;;;;3.30;2.60;;;;;;;24.13;55.04;93472.84;5064335;28;20044;-79
2023/08/13 08:57:35;;;;;;;3.83;2.50;;;;;;;24.22;55.16;93469.53;5064049;28;20571;-80
2023/08/13 09:00:02;;;;;;;3.17;2.60;;;;;;;24.38;55.62;93480.53;5062923;28;20048;-78
2023/08/13 09:02:29;;;;;;;3.67;2.70;;;;;;;24.32;55.54;93471.19;5065596;28;20081;-80
2023/08/13 09:04:58;;;;;;;6.07;2.90;;;;;;;24.13;55.46;93472.03;5063179;28;20099;-78
2023/08/13 09:07:29;;;;;;;3.78;3.00;;;;;;;24.13;54.38;93467.59;5062637;28;20125;-78
2023/08/13 09:09:56;;;;;;;3.85;2.20;;;;;;;24.40;55.30;93463.41;5062692;28;20041;-78
2023/08/13 09:12:23;;;;;;;3.97;2.88;;;;;;;24.63;53.24;93474.03;5062079;28;20141;-79
2023/08/13 09:14:54;;;;;;;3.35;2.60;;;;;;;24.45;53.60;93467.03;5064835;28;20045;-78
2023/08/13 09:17:24;;;;;;;3.40;2.40;;;;;;;24.40;52.92;93478.41;5062310;28;20087;-80
2023/08/13 09:19:50;;;;;;;3.67;2.72;;;;;;;24.37;54.38;93455.34;5062620;28;20058;-79
2023/08/13 09:22:19;;;;;;;3.88;2.60;;;;;;;24.21;53.23;93466.13;5062026;28;20453;-78
2023/08/13 09:24:46;;;;;;;3.25;2.58;;;;;;;24.49;53.44;93460.13;5063726;28;20186;-78
2023/08/13 09:27:13;;;;;;;4.43;2.85;;;;;;;24.66;52.78;93455.06;5062422;28;20131;-80
2023/08/13 09:29:42;;;;;;;2.70;2.22;;;;;;;24.91;52.50;93462.78;5062894;28;20133;-80
2023/08/13 09:32:09;;;;;;;2.65;2.22;;;;;;;24.77;53.00;93460.13;5064918;28;20049;-80
2023/08/13 09:34:35;;;;;;;4.05;2.65;;;;;;;24.61;51.92;93459.63;5061803;28;20125;-80
2023/08/13 09:37:02;;;;;;;3.58;2.50;;;;;;;24.57;52.28;93459.44;5062713;28;20490;-80
2023/08/13 09:39:32;;;;;;;4.03;2.65;;;;;;;24.66;52.06;93462.97;5064724;28;20106;-80
2023/08/13 09:42:00;;;;;;;3.30;2.55;;;;;;;24.64;51.96;93459.84;5061797;28;20041;-78
2023/08/13 09:44:29;;;;;;;4.63;2.55;;;;;;;25.09;52.73;93456.63;5063926;28;20051;-79
2023/08/13 09:47:00;;;;;;;2.70;2.33;;;;;;;25.63;52.55;93447.34;5063674;28;20049;-82
2023/08/13 09:49:30;;;;;;;3.97;2.35;;;;;;;25.11;50.98;93460.78;5063482;28;20098;-78
2023/08/13 09:51:59;;;;;;;4.05;2.45;;;;;;;25.09;50.79;93455.84;5061687;28;20414;-79
2023/08/13 09:54:36;;;;;;;5.07;2.70;;;;;;;25.14;51.43;93462.84;5061210;28;20045;-80
2023/08/13 09:57:04;;;;;;;3.13;2.28;;;;;;;24.92;51.04;93467.75;5062153;28;20498;-79
2023/08/13 09:59:34;;;;;;;3.30;2.22;;;;;;;25.17;50.56;93460.41;5062906;28;20040;-79
2023/08/13 10:02:01;;;;;;;3.00;2.50;;;;;;;24.59;50.61;93448.66;5061271;28;20120;-79
2023/08/13 10:04:29;;;;;;;4.82;2.70;;;;;;;24.87;51.20;93472.31;5059920;28;20067;-80
2023/08/13 10:06:57;;;;;;;4.30;2.95;;;;;;;25.16;50.55;93468.56;5063071;28;20060;-81
2023/08/13 10:09:26;;;;;;;3.47;2.65;;;;;;;25.16;49.68;93472.00;5061982;28;20090;-78
2023/08/13 10:11:55;;;;;;;3.03;2.30;;;;;;;24.94;49.41;93477.94;5063120;28;20049;-79
2023/08/13 10:14:22;;;;;;;2.92;2.33;;;;;;;25.33;51.06;93466.09;5062266;28;20040;-80
2023/08/13 10:16:48;;;;;;;4.00;2.90;;;;;;;25.55;49.86;93469.09;5059688;28;20128;-80
2023/08/13 10:19:17;;;;;;;5.60;2.60;;;;;;;25.61;50.49;93447.63;5062360;28;20420;-81
2023/08/13 10:21:48;;;;;;;3.50;2.38;;;;;;;26.02;48.85;93464.31;5062166;28;20052;-79
2023/08/13 10:24:15;;;;;;;4.25;2.30;;;;;;;25.44;50.17;93450.09;5065056;28;20483;-80
2023/08/13 10:26:42;;;;;;;4.25;2.35;;;;;;;25.20;48.65;93467.72;5063860;28;20113;-79
2023/08/13 10:29:17;;;;;;;4.40;2.20;;;;;;;25.49;49.43;93440.25;5063736;28;20099;-80
2023/08/13 10:31:54;;;;;;;4.25;2.40;;;;;;;25.31;49.24;93465.63;5058410;28;20041;-80
2023/08/13 10:34:38;;;;;;;4.78;2.72;;;;;;;25.61;49.81;93454.75;5063769;28;20049;-79
2023/08/13 10:37:13;;;;;;;3.95;2.88;;;;;;;25.63;50.06;93452.59;5062130;28;20074;-80
2023/08/13 10:39:43;;;;;;;3.40;2.30;;;;;;;25.38;50.47;93443.41;5063669;28;20045;-79
2023/08/13 10:42:49;;;;;;;3.72;2.30;;;;;;;25.79;50.60;93455.66;5060083;28;20060;-79
2023/08/13 10:45:18;;;;;;;3.15;2.40;;;;;;;25.67;51.17;93455.41;5061783;28;20098;-78
2023/08/13 10:47:47;;;;;;;3.35;2.55;;;;;;;25.86;50.71;93445.47;5062480;28;20082;-80
2023/08/13 10:50:22;;;;;;;5.32;3.20;;;;;;;25.78;50.70;93455.97;5062476;28;20159;-81
2023/08/13 10:52:52;;;;;;;2.92;2.17;;;;;;;25.94;50.71;93448.47;5060706;28;20575;-82
2023/08/13 10:55:22;;;;;;;3.70;2.63;;;;;;;26.11;48.65;93419.59;5058782;28;20098;-84
2023/08/13 10:57:52;;;;;;;3.67;2.58;;;;;;;25.72;48.88;93421.88;5058933;28;20045;-85
2023/08/13 11:00:23;;;;;;;3.50;2.35;;;;;;;25.80;49.46;93451.94;5061379;28;20676;-85
2023/08/13 11:02:53;;;;;;;3.45;2.63;;;;;;;25.65;50.58;93449.66;5065300;28;20086;-85
2023/08/13 11:05:22;;;;;;;5.50;2.83;;;;;;;25.34;49.64;93448.47;5067171;28;20498;-84
2023/08/13 11:07:50;;;;;;;3.45;2.30;;;;;;;25.04;50.76;93438.31;5065779;28;20098;-85
2023/08/13 11:10:18;;;;;;;4.57;3.28;;;;;;;24.84;51.83;93436.91;5064447;28;20055;-80
2023/08/13 11:12:49;;;;;;;4.65;2.70;;;;;;;25.17;51.33;93425.44;5066617;28;20041;-78
2023/08/13 11:15:16;;;;;;;3.75;3.35;;;;;;;25.47;51.33;93429.25;5064878;28;20044;-80
2023/08/13 11:17:48;;;;;;;3.38;2.70;;;;;;;25.54;51.04;93434.13;5062925;28;20528;-79
2023/08/13 11:20:18;;;;;;;5.28;2.65;;;;;;;25.57;50.42;93427.50;5066704;28;20788;-80
2023/08/13 11:22:45;;;;;;;4.50;2.53;;;;;;;26.00;51.14;93427.00;5065428;28;20063;-79
2023/08/13 11:25:12;;;;;;;3.13;2.40;;;;;;;26.12;50.57;93425.66;5064436;28;20049;-79
2023/08/13 11:27:39;;;;;;;4.10;2.58;;;;;;;25.98;50.67;93396.78;5067248;28;20087;-79